sensor_id;sensor_type;location;lat;lon;timestamp;temperature;humidity
79439;DHT22;68889;48.232;10.110;2024-02-04T00:02:21;6.40;96.30
79439;DHT22;68889;48.232;10.110;2024-02-04T00:04:49;6.40;96.20
79439;DHT22;68889;48.232;10.110;2024-02-04T00:07:16;6.30;96.40
79439;DHT22;68889;48.232;10.110;2024-02-04T00:09:42;6.20;96.60
79439;DHT22;68889;48.232;10.110;2024-02-04T00:12:10;6.10;96.80
79439;DHT22;68889;48.232;10.110;2024-02-04T00:14:35;6.00;97.10
79439;DHT22;68889;48.232;10.110;2024-02-04T00:17:02;6.00;97.40
79439;DHT22;68889;48.232;10.110;2024-02-04T00:19:28;5.90;97.60
79439;DHT22;68889;48.232;10.110;2024-02-04T00:21:54;5.90;97.80
79439;DHT22;68889;48.232;10.110;2024-02-04T00:24:20;5.80;97.80
79439;DHT22;68889;48.232;10.110;2024-02-04T00:26:48;5.80;97.90
79439;DHT22;68889;48.232;10.110;2024-02-04T00:29:14;5.80;97.70
79439;DHT22;68889;48.232;10.110;2024-02-04T00:31:40;5.80;97.60
79439;DHT22;68889;48.232;10.110;2024-02-04T00:34:06;5.70;97.60
79439;DHT22;68889;48.232;10.110;2024-02-04T00:36:32;5.60;97.70
79439;DHT22;68889;48.232;10.110;2024-02-04T00:38:58;5.60;98.10
79439;DHT22;68889;48.232;10.110;2024-02-04T00:41:27;5.60;98.20
79439;DHT22;68889;48.232;10.110;2024-02-04T00:43:53;5.50;98.30
79439;DHT22;68889;48.232;10.110;2024-02-04T00:46:19;5.40;98.50
79439;DHT22;68889;48.232;10.110;2024-02-04T00:48:45;5.40;98.70
79439;DHT22;68889;48.232;10.110;2024-02-04T00:51:17;5.30;99.20
79439;DHT22;68889;48.232;10.110;2024-02-04T00:53:44;5.30;99.40
79439;DHT22;68889;48.232;10.110;2024-02-04T00:56:10;5.30;99.40
79439;DHT22;68889;48.232;10.110;2024-02-04T00:58:37;5.30;99.70
79439;DHT22;68889;48.232;10.110;2024-02-04T01:01:16;5.40;99.70
79439;DHT22;68889;48.232;10.110;2024-02-04T01:03:45;5.40;99.50
79439;DHT22;68889;48.232;10.110;2024-02-04T01:06:11;5.40;99.40
79439;DHT22;68889;48.232;10.110;2024-02-04T01:08:37;5.40;99.40
79439;DHT22;68889;48.232;10.110;2024-02-04T01:11:04;5.50;99.30
79439;DHT22;68889;48.232;10.110;2024-02-04T01:13:32;5.50;99.20
79439;DHT22;68889;48.232;10.110;2024-02-04T01:15:59;5.40;99.30
79439;DHT22;68889;48.232;10.110;2024-02-04T01:18:26;5.40;99.20
79439;DHT22;68889;48.232;10.110;2024-02-04T01:20:52;5.40;99.50
79439;DHT22;68889;48.232;10.110;2024-02-04T01:23:17;5.30;99.80
79439;DHT22;68889;48.232;10.110;2024-02-04T01:25:44;5.30;99.90
79439;DHT22;68889;48.232;10.110;2024-02-04T01:28:12;5.30;99.90
79439;DHT22;68889;48.232;10.110;2024-02-04T01:30:39;5.30;99.90
79439;DHT22;68889;48.232;10.110;2024-02-04T01:33:05;5.30;99.90
79439;DHT22;68889;48.232;10.110;2024-02-04T01:35:30;5.30;99.90
79439;DHT22;68889;48.232;10.110;2024-02-04T01:38:00;5.30;99.90
79439;DHT22;68889;48.232;10.110;2024-02-04T01:40:26;5.40;99.90
79439;DHT22;68889;48.232;10.110;2024-02-04T01:42:52;5.40;99.90
79439;DHT22;68889;48.232;10.110;2024-02-04T01:45:22;5.40;99.70
79439;DHT22;68889;48.232;10.110;2024-02-04T01:47:50;5.50;99.80
79439;DHT22;68889;48.232;10.110;2024-02-04T01:50:18;5.40;99.90
79439;DHT22;68889;48.232;10.110;2024-02-04T01:52:44;5.40;99.80
79439;DHT22;68889;48.232;10.110;2024-02-04T01:55:10;5.50;99.70
79439;DHT22;68889;48.232;10.110;2024-02-04T01:57:44;5.50;99.80
79439;DHT22;68889;48.232;10.110;2024-02-04T02:00:10;5.50;99.80
79439;DHT22;68889;48.232;10.110;2024-02-04T02:02:41;5.50;99.80
79439;DHT22;68889;48.232;10.110;2024-02-04T02:05:08;5.40;99.90
79439;DHT22;68889;48.232;10.110;2024-02-04T02:07:35;5.40;99.90
79439;DHT22;68889;48.232;10.110;2024-02-04T02:10:01;5.40;99.90
79439;DHT22;68889;48.232;10.110;2024-02-04T02:12:39;5.30;99.90
79439;DHT22;68889;48.232;10.110;2024-02-04T02:15:13;5.30;99.90
79439;DHT22;68889;48.232;10.110;2024-02-04T02:17:58;5.20;99.90
79439;DHT22;68889;48.232;10.110;2024-02-04T02:23:48;5.00;99.90
79439;DHT22;68889;48.232;10.110;2024-02-04T02:26:16;5.10;99.90
79439;DHT22;68889;48.232;10.110;2024-02-04T02:28:42;5.10;99.90
79439;DHT22;68889;48.232;10.110;2024-02-04T02:31:07;5.10;99.90
79439;DHT22;68889;48.232;10.110;2024-02-04T02:33:33;5.00;99.90
79439;DHT22;68889;48.232;10.110;2024-02-04T02:36:02;5.00;99.90
79439;DHT22;68889;48.232;10.110;2024-02-04T02:38:46;4.90;99.90
79439;DHT22;68889;48.232;10.110;2024-02-04T02:41:16;4.90;99.90
79439;DHT22;68889;48.232;10.110;2024-02-04T02:43:43;5.00;99.90
79439;DHT22;68889;48.232;10.110;2024-02-04T02:46:10;5.00;99.90
79439;DHT22;68889;48.232;10.110;2024-02-04T02:48:36;5.10;99.90
79439;DHT22;68889;48.232;10.110;2024-02-04T02:51:02;5.10;99.90
79439;DHT22;68889;48.232;10.110;2024-02-04T02:53:32;5.20;99.90
79439;DHT22;68889;48.232;10.110;2024-02-04T02:55:59;5.20;99.90
79439;DHT22;68889;48.232;10.110;2024-02-04T02:58:25;5.30;99.90
79439;DHT22;68889;48.232;10.110;2024-02-04T03:00:55;5.30;99.90
79439;DHT22;68889;48.232;10.110;2024-02-04T03:03:20;5.30;99.90
79439;DHT22;68889;48.232;10.110;2024-02-04T03:05:46;5.30;99.90
79439;DHT22;68889;48.232;10.110;2024-02-04T03:08:12;5.40;99.90
79439;DHT22;68889;48.232;10.110;2024-02-04T03:10:38;5.40;99.80
79439;DHT22;68889;48.232;10.110;2024-02-04T03:13:17;5.40;99.60
79439;DHT22;68889;48.232;10.110;2024-02-04T03:15:47;5.40;99.60
79439;DHT22;68889;48.232;10.110;2024-02-04T03:18:18;5.40;99.50
79439;DHT22;68889;48.232;10.110;2024-02-04T03:20:43;5.40;99.80
79439;DHT22;68889;48.232;10.110;2024-02-04T03:23:09;5.40;99.80
79439;DHT22;68889;48.232;10.110;2024-02-04T03:25:36;5.30;99.90
79439;DHT22;68889;48.232;10.110;2024-02-04T03:28:02;5.30;99.90
79439;DHT22;68889;48.232;10.110;2024-02-04T03:30:28;5.40;99.90
79439;DHT22;68889;48.232;10.110;2024-02-04T03:32:54;5.40;99.80
79439;DHT22;68889;48.232;10.110;2024-02-04T03:35:22;5.40;99.80
79439;DHT22;68889;48.232;10.110;2024-02-04T03:37:48;5.40;99.80
79439;DHT22;68889;48.232;10.110;2024-02-04T03:40:16;5.30;99.90
79439;DHT22;68889;48.232;10.110;2024-02-04T03:42:45;5.30;99.90
79439;DHT22;68889;48.232;10.110;2024-02-04T03:45:10;5.30;99.90
79439;DHT22;68889;48.232;10.110;2024-02-04T03:47:36;5.30;99.90
79439;DHT22;68889;48.232;10.110;2024-02-04T03:50:03;5.40;99.90
79439;DHT22;68889;48.232;10.110;2024-02-04T03:52:30;5.40;99.90
79439;DHT22;68889;48.232;10.110;2024-02-04T03:54:55;5.40;99.90
79439;DHT22;68889;48.232;10.110;2024-02-04T03:57:22;5.30;99.90
79439;DHT22;68889;48.232;10.110;2024-02-04T03:59:48;5.30;99.90
79439;DHT22;68889;48.232;10.110;2024-02-04T04:02:13;5.40;99.90
79439;DHT22;68889;48.232;10.110;2024-02-04T04:04:42;5.40;99.90
79439;DHT22;68889;48.232;10.110;2024-02-04T04:07:15;5.40;99.90
79439;DHT22;68889;48.232;10.110;2024-02-04T04:09:41;5.40;99.90
79439;DHT22;68889;48.232;10.110;2024-02-04T04:12:08;5.40;99.90
79439;DHT22;68889;48.232;10.110;2024-02-04T04:14:33;5.40;99.80
79439;DHT22;68889;48.232;10.110;2024-02-04T04:16:59;5.50;99.70
79439;DHT22;68889;48.232;10.110;2024-02-04T04:19:24;5.50;99.60
79439;DHT22;68889;48.232;10.110;2024-02-04T04:21:50;5.50;99.50
79439;DHT22;68889;48.232;10.110;2024-02-04T04:24:16;5.50;99.40
79439;DHT22;68889;48.232;10.110;2024-02-04T04:26:46;5.50;99.40
79439;DHT22;68889;48.232;10.110;2024-02-04T04:29:11;5.50;99.30
79439;DHT22;68889;48.232;10.110;2024-02-04T04:31:41;5.50;99.40
79439;DHT22;68889;48.232;10.110;2024-02-04T04:34:06;5.40;99.40
79439;DHT22;68889;48.232;10.110;2024-02-04T04:36:34;5.40;99.50
79439;DHT22;68889;48.232;10.110;2024-02-04T04:39:01;5.40;99.60
79439;DHT22;68889;48.232;10.110;2024-02-04T04:41:26;5.40;99.70
79439;DHT22;68889;48.232;10.110;2024-02-04T04:43:52;5.40;99.80
79439;DHT22;68889;48.232;10.110;2024-02-04T04:46:17;5.40;99.90
79439;DHT22;68889;48.232;10.110;2024-02-04T04:48:43;5.40;99.90
79439;DHT22;68889;48.232;10.110;2024-02-04T04:51:10;5.40;99.80
79439;DHT22;68889;48.232;10.110;2024-02-04T04:53:45;5.40;99.80
79439;DHT22;68889;48.232;10.110;2024-02-04T04:56:11;5.40;99.70
79439;DHT22;68889;48.232;10.110;2024-02-04T04:58:37;5.40;99.70
79439;DHT22;68889;48.232;10.110;2024-02-04T05:01:04;5.50;99.60
79439;DHT22;68889;48.232;10.110;2024-02-04T05:03:33;5.50;99.50
79439;DHT22;68889;48.232;10.110;2024-02-04T05:05:58;5.60;99.50
79439;DHT22;68889;48.232;10.110;2024-02-04T05:08:31;5.60;99.40
79439;DHT22;68889;48.232;10.110;2024-02-04T05:10:57;5.60;99.50
79439;DHT22;68889;48.232;10.110;2024-02-04T05:13:22;5.60;99.40
79439;DHT22;68889;48.232;10.110;2024-02-04T05:15:48;5.60;99.40
79439;DHT22;68889;48.232;10.110;2024-02-04T05:18:14;5.60;99.40
79439;DHT22;68889;48.232;10.110;2024-02-04T05:20:41;5.70;99.20
79439;DHT22;68889;48.232;10.110;2024-02-04T05:23:09;5.70;99.30
79439;DHT22;68889;48.232;10.110;2024-02-04T05:25:34;5.70;99.10
79439;DHT22;68889;48.232;10.110;2024-02-04T05:28:05;5.70;99.40
79439;DHT22;68889;48.232;10.110;2024-02-04T05:30:31;5.80;99.30
79439;DHT22;68889;48.232;10.110;2024-02-04T05:32:58;5.70;99.40
79439;DHT22;68889;48.232;10.110;2024-02-04T05:35:23;5.70;99.50
79439;DHT22;68889;48.232;10.110;2024-02-04T05:37:50;5.60;99.80
79439;DHT22;68889;48.232;10.110;2024-02-04T05:40:16;5.60;99.90
79439;DHT22;68889;48.232;10.110;2024-02-04T05:42:45;5.50;99.90
79439;DHT22;68889;48.232;10.110;2024-02-04T05:45:12;5.50;99.90
79439;DHT22;68889;48.232;10.110;2024-02-04T05:47:40;5.40;99.90
79439;DHT22;68889;48.232;10.110;2024-02-04T05:50:07;5.40;99.90
79439;DHT22;68889;48.232;10.110;2024-02-04T05:52:38;5.40;99.90
79439;DHT22;68889;48.232;10.110;2024-02-04T05:55:05;5.40;99.90
79439;DHT22;68889;48.232;10.110;2024-02-04T05:57:34;5.30;99.90
79439;DHT22;68889;48.232;10.110;2024-02-04T06:00:01;5.40;99.90
79439;DHT22;68889;48.232;10.110;2024-02-04T06:02:27;5.30;99.90
79439;DHT22;68889;48.232;10.110;2024-02-04T06:04:53;5.30;99.90
79439;DHT22;68889;48.232;10.110;2024-02-04T06:07:32;5.30;99.90
79439;DHT22;68889;48.232;10.110;2024-02-04T06:10:04;5.30;99.90
79439;DHT22;68889;48.232;10.110;2024-02-04T06:12:31;5.30;99.90
79439;DHT22;68889;48.232;10.110;2024-02-04T06:15:05;5.20;99.90
79439;DHT22;68889;48.232;10.110;2024-02-04T06:17:33;5.20;99.90
79439;DHT22;68889;48.232;10.110;2024-02-04T06:20:06;5.20;99.90
79439;DHT22;68889;48.232;10.110;2024-02-04T06:22:36;5.20;99.90
79439;DHT22;68889;48.232;10.110;2024-02-04T06:25:03;5.20;99.90
79439;DHT22;68889;48.232;10.110;2024-02-04T06:27:30;5.20;99.90
79439;DHT22;68889;48.232;10.110;2024-02-04T06:29:58;5.10;99.90
79439;DHT22;68889;48.232;10.110;2024-02-04T06:32:26;5.20;99.90
79439;DHT22;68889;48.232;10.110;2024-02-04T06:34:58;5.20;99.90
79439;DHT22;68889;48.232;10.110;2024-02-04T06:37:29;5.20;99.90
79439;DHT22;68889;48.232;10.110;2024-02-04T06:39:57;5.20;99.90
79439;DHT22;68889;48.232;10.110;2024-02-04T06:42:23;5.20;99.90
79439;DHT22;68889;48.232;10.110;2024-02-04T06:44:54;5.20;99.90
79439;DHT22;68889;48.232;10.110;2024-02-04T06:47:20;5.20;99.90
79439;DHT22;68889;48.232;10.110;2024-02-04T06:49:46;5.10;99.90
79439;DHT22;68889;48.232;10.110;2024-02-04T06:52:12;5.10;99.90
79439;DHT22;68889;48.232;10.110;2024-02-04T06:54:38;5.10;99.90
79439;DHT22;68889;48.232;10.110;2024-02-04T06:57:06;5.00;99.90
79439;DHT22;68889;48.232;10.110;2024-02-04T06:59:31;5.00;99.90
79439;DHT22;68889;48.232;10.110;2024-02-04T07:01:58;5.00;99.90
79439;DHT22;68889;48.232;10.110;2024-02-04T07:04:32;5.00;99.90
79439;DHT22;68889;48.232;10.110;2024-02-04T07:07:11;5.00;99.90
79439;DHT22;68889;48.232;10.110;2024-02-04T07:09:37;5.00;99.90
79439;DHT22;68889;48.232;10.110;2024-02-04T07:12:08;5.00;99.90
79439;DHT22;68889;48.232;10.110;2024-02-04T07:14:33;5.00;99.90
79439;DHT22;68889;48.232;10.110;2024-02-04T07:16:59;5.00;99.90
79439;DHT22;68889;48.232;10.110;2024-02-04T07:19:25;5.10;99.90
79439;DHT22;68889;48.232;10.110;2024-02-04T07:21:50;5.10;99.90
79439;DHT22;68889;48.232;10.110;2024-02-04T07:24:16;5.10;99.90
79439;DHT22;68889;48.232;10.110;2024-02-04T07:26:42;5.10;99.90
79439;DHT22;68889;48.232;10.110;2024-02-04T07:29:07;5.10;99.90
79439;DHT22;68889;48.232;10.110;2024-02-04T07:31:33;5.10;99.90
79439;DHT22;68889;48.232;10.110;2024-02-04T07:34:03;5.10;99.90
79439;DHT22;68889;48.232;10.110;2024-02-04T07:36:38;5.10;99.90
79439;DHT22;68889;48.232;10.110;2024-02-04T07:39:03;5.20;99.90
79439;DHT22;68889;48.232;10.110;2024-02-04T07:41:30;5.20;99.90
79439;DHT22;68889;48.232;10.110;2024-02-04T07:43:57;5.20;99.90
79439;DHT22;68889;48.232;10.110;2024-02-04T07:46:26;5.20;99.90
79439;DHT22;68889;48.232;10.110;2024-02-04T07:48:52;5.20;99.90
79439;DHT22;68889;48.232;10.110;2024-02-04T07:51:26;5.20;99.90
79439;DHT22;68889;48.232;10.110;2024-02-04T07:53:53;5.20;99.90
79439;DHT22;68889;48.232;10.110;2024-02-04T07:56:21;5.30;99.90
79439;DHT22;68889;48.232;10.110;2024-02-04T07:58:46;5.40;99.90
79439;DHT22;68889;48.232;10.110;2024-02-04T08:01:24;5.40;99.90
79439;DHT22;68889;48.232;10.110;2024-02-04T08:03:59;5.50;99.90
79439;DHT22;68889;48.232;10.110;2024-02-04T08:06:25;5.50;99.90
79439;DHT22;68889;48.232;10.110;2024-02-04T08:09:15;5.60;99.90
79439;DHT22;68889;48.232;10.110;2024-02-04T08:11:54;5.70;99.90
79439;DHT22;68889;48.232;10.110;2024-02-04T08:14:32;5.70;99.90
79439;DHT22;68889;48.232;10.110;2024-02-04T08:17:03;5.70;99.90
79439;DHT22;68889;48.232;10.110;2024-02-04T08:19:29;5.80;99.90
79439;DHT22;68889;48.232;10.110;2024-02-04T08:21:57;6.00;99.40
79439;DHT22;68889;48.232;10.110;2024-02-04T08:24:24;6.00;99.10
79439;DHT22;68889;48.232;10.110;2024-02-04T08:26:57;6.10;98.90
79439;DHT22;68889;48.232;10.110;2024-02-04T08:29:23;6.20;98.80
79439;DHT22;68889;48.232;10.110;2024-02-04T08:31:48;6.20;98.70
79439;DHT22;68889;48.232;10.110;2024-02-04T08:34:16;6.10;98.40
79439;DHT22;68889;48.232;10.110;2024-02-04T08:36:50;6.10;98.90
79439;DHT22;68889;48.232;10.110;2024-02-04T08:39:17;6.00;99.20
79439;DHT22;68889;48.232;10.110;2024-02-04T08:41:54;6.00;99.50
79439;DHT22;68889;48.232;10.110;2024-02-04T08:44:19;6.00;99.50
79439;DHT22;68889;48.232;10.110;2024-02-04T08:46:46;6.00;99.70
79439;DHT22;68889;48.232;10.110;2024-02-04T08:49:12;5.90;99.50
79439;DHT22;68889;48.232;10.110;2024-02-04T08:52:02;6.00;99.80
79439;DHT22;68889;48.232;10.110;2024-02-04T08:54:37;6.00;99.70
79439;DHT22;68889;48.232;10.110;2024-02-04T08:57:03;6.00;99.80
79439;DHT22;68889;48.232;10.110;2024-02-04T08:59:30;6.00;99.90
79439;DHT22;68889;48.232;10.110;2024-02-04T09:01:56;6.00;99.90
79439;DHT22;68889;48.232;10.110;2024-02-04T09:04:42;6.00;99.90
79439;DHT22;68889;48.232;10.110;2024-02-04T09:07:08;6.00;99.90
79439;DHT22;68889;48.232;10.110;2024-02-04T09:09:34;6.10;99.60
79439;DHT22;68889;48.232;10.110;2024-02-04T09:12:01;6.10;99.40
79439;DHT22;68889;48.232;10.110;2024-02-04T09:14:28;6.10;99.10
79439;DHT22;68889;48.232;10.110;2024-02-04T09:16:55;6.10;99.00
79439;DHT22;68889;48.232;10.110;2024-02-04T09:19:20;6.20;99.00
79439;DHT22;68889;48.232;10.110;2024-02-04T09:21:48;6.30;98.60
79439;DHT22;68889;48.232;10.110;2024-02-04T09:24:14;6.30;98.20
79439;DHT22;68889;48.232;10.110;2024-02-04T09:26:51;6.40;98.50
79439;DHT22;68889;48.232;10.110;2024-02-04T09:29:19;6.50;98.20
79439;DHT22;68889;48.232;10.110;2024-02-04T09:31:45;6.50;97.60
79439;DHT22;68889;48.232;10.110;2024-02-04T09:34:10;6.50;97.80
79439;DHT22;68889;48.232;10.110;2024-02-04T09:36:36;6.50;97.80
79439;DHT22;68889;48.232;10.110;2024-02-04T09:39:01;6.50;98.00
79439;DHT22;68889;48.232;10.110;2024-02-04T09:41:31;6.50;97.70
79439;DHT22;68889;48.232;10.110;2024-02-04T09:43:57;6.60;97.20
79439;DHT22;68889;48.232;10.110;2024-02-04T09:49:23;6.70;97.10
79439;DHT22;68889;48.232;10.110;2024-02-04T09:51:59;6.70;96.80
79439;DHT22;68889;48.232;10.110;2024-02-04T09:54:29;6.70;97.20
79439;DHT22;68889;48.232;10.110;2024-02-04T09:57:09;6.80;96.90
79439;DHT22;68889;48.232;10.110;2024-02-04T09:59:35;6.80;96.70
79439;DHT22;68889;48.232;10.110;2024-02-04T10:02:10;6.80;96.90
79439;DHT22;68889;48.232;10.110;2024-02-04T10:04:38;6.80;96.80
79439;DHT22;68889;48.232;10.110;2024-02-04T10:07:10;6.90;96.60
79439;DHT22;68889;48.232;10.110;2024-02-04T10:09:52;7.00;96.30
79439;DHT22;68889;48.232;10.110;2024-02-04T10:12:23;7.10;95.60
79439;DHT22;68889;48.232;10.110;2024-02-04T10:14:49;7.20;95.20
79439;DHT22;68889;48.232;10.110;2024-02-04T10:17:27;7.40;95.10
79439;DHT22;68889;48.232;10.110;2024-02-04T10:19:56;7.60;93.70
79439;DHT22;68889;48.232;10.110;2024-02-04T10:22:28;7.70;93.40
79439;DHT22;68889;48.232;10.110;2024-02-04T10:25:06;7.90;93.70
79439;DHT22;68889;48.232;10.110;2024-02-04T10:27:38;8.00;93.40
79439;DHT22;68889;48.232;10.110;2024-02-04T10:30:06;8.10;93.10
79439;DHT22;68889;48.232;10.110;2024-02-04T10:32:42;8.20;91.90
79439;DHT22;68889;48.232;10.110;2024-02-04T10:35:16;8.20;91.90
79439;DHT22;68889;48.232;10.110;2024-02-04T10:37:46;8.40;91.90
79439;DHT22;68889;48.232;10.110;2024-02-04T10:40:25;8.40;91.60
79439;DHT22;68889;48.232;10.110;2024-02-04T10:42:53;8.60;91.80
79439;DHT22;68889;48.232;10.110;2024-02-04T10:45:30;8.80;91.70
79439;DHT22;68889;48.232;10.110;2024-02-04T10:48:15;9.10;89.80
79439;DHT22;68889;48.232;10.110;2024-02-04T10:51:12;9.30;89.00
79439;DHT22;68889;48.232;10.110;2024-02-04T10:53:43;9.40;88.60
79439;DHT22;68889;48.232;10.110;2024-02-04T10:56:22;9.30;88.40
79439;DHT22;68889;48.232;10.110;2024-02-04T10:58:52;9.10;88.90
79439;DHT22;68889;48.232;10.110;2024-02-04T11:01:22;9.10;88.50
79439;DHT22;68889;48.232;10.110;2024-02-04T11:03:53;9.00;89.40
79439;DHT22;68889;48.232;10.110;2024-02-04T11:06:30;9.00;89.70
79439;DHT22;68889;48.232;10.110;2024-02-04T11:08:57;9.00;89.60
79439;DHT22;68889;48.232;10.110;2024-02-04T11:11:39;9.00;89.90
79439;DHT22;68889;48.232;10.110;2024-02-04T11:14:21;9.10;89.30
79439;DHT22;68889;48.232;10.110;2024-02-04T11:23:06;9.10;89.10
79439;DHT22;68889;48.232;10.110;2024-02-04T11:25:47;9.30;88.90
79439;DHT22;68889;48.232;10.110;2024-02-04T11:28:28;9.40;88.30
79439;DHT22;68889;48.232;10.110;2024-02-04T11:30:54;9.60;88.10
79439;DHT22;68889;48.232;10.110;2024-02-04T11:33:29;9.70;87.40
79439;DHT22;68889;48.232;10.110;2024-02-04T11:36:05;9.90;87.70
79439;DHT22;68889;48.232;10.110;2024-02-04T11:38:36;9.80;86.30
79439;DHT22;68889;48.232;10.110;2024-02-04T11:41:06;9.70;88.00
79439;DHT22;68889;48.232;10.110;2024-02-04T11:43:36;9.60;87.30
79439;DHT22;68889;48.232;10.110;2024-02-04T11:46:17;9.80;88.10
79439;DHT22;68889;48.232;10.110;2024-02-04T11:48:55;10.00;87.60
79439;DHT22;68889;48.232;10.110;2024-02-04T11:51:31;10.00;86.40
79439;DHT22;68889;48.232;10.110;2024-02-04T11:53:57;9.90;87.10
79439;DHT22;68889;48.232;10.110;2024-02-04T11:56:38;9.80;87.70
79439;DHT22;68889;48.232;10.110;2024-02-04T11:59:06;10.10;86.80
79439;DHT22;68889;48.232;10.110;2024-02-04T12:01:34;10.50;86.40
79439;DHT22;68889;48.232;10.110;2024-02-04T12:04:22;10.70;85.10
79439;DHT22;68889;48.232;10.110;2024-02-04T12:06:53;10.70;85.00
79439;DHT22;68889;48.232;10.110;2024-02-04T12:09:19;10.80;84.60
79439;DHT22;68889;48.232;10.110;2024-02-04T12:11:48;10.90;84.30
79439;DHT22;68889;48.232;10.110;2024-02-04T12:14:18;10.90;84.90
79439;DHT22;68889;48.232;10.110;2024-02-04T12:16:44;10.80;85.20
79439;DHT22;68889;48.232;10.110;2024-02-04T12:19:11;10.70;85.10
79439;DHT22;68889;48.232;10.110;2024-02-04T12:21:37;10.60;85.30
79439;DHT22;68889;48.232;10.110;2024-02-04T12:24:04;10.50;84.90
79439;DHT22;68889;48.232;10.110;2024-02-04T12:26:30;10.40;85.20
79439;DHT22;68889;48.232;10.110;2024-02-04T12:28:56;10.40;85.50
79439;DHT22;68889;48.232;10.110;2024-02-04T12:31:25;10.30;85.80
79439;DHT22;68889;48.232;10.110;2024-02-04T12:33:59;10.40;86.20
79439;DHT22;68889;48.232;10.110;2024-02-04T12:36:32;10.50;86.00
79439;DHT22;68889;48.232;10.110;2024-02-04T12:39:00;10.70;85.70
79439;DHT22;68889;48.232;10.110;2024-02-04T12:41:27;10.80;84.90
79439;DHT22;68889;48.232;10.110;2024-02-04T12:43:56;10.80;84.90
79439;DHT22;68889;48.232;10.110;2024-02-04T12:46:24;10.80;85.60
79439;DHT22;68889;48.232;10.110;2024-02-04T12:48:54;10.70;85.30
79439;DHT22;68889;48.232;10.110;2024-02-04T12:51:32;10.50;85.90
79439;DHT22;68889;48.232;10.110;2024-02-04T12:56:50;10.20;86.80
79439;DHT22;68889;48.232;10.110;2024-02-04T12:59:31;10.30;87.10
79439;DHT22;68889;48.232;10.110;2024-02-04T13:01:59;10.40;86.60
79439;DHT22;68889;48.232;10.110;2024-02-04T13:04:26;10.60;85.80
79439;DHT22;68889;48.232;10.110;2024-02-04T13:06:52;10.80;85.00
79439;DHT22;68889;48.232;10.110;2024-02-04T13:09:18;10.90;85.70
79439;DHT22;68889;48.232;10.110;2024-02-04T13:11:45;10.90;84.70
79439;DHT22;68889;48.232;10.110;2024-02-04T13:14:11;10.90;84.90
79439;DHT22;68889;48.232;10.110;2024-02-04T13:16:43;10.80;85.20
79439;DHT22;68889;48.232;10.110;2024-02-04T13:19:11;10.80;84.90
79439;DHT22;68889;48.232;10.110;2024-02-04T13:21:38;10.70;84.70
79439;DHT22;68889;48.232;10.110;2024-02-04T13:24:04;10.60;85.30
79439;DHT22;68889;48.232;10.110;2024-02-04T13:26:30;10.50;85.50
79439;DHT22;68889;48.232;10.110;2024-02-04T13:28:56;10.40;85.80
79439;DHT22;68889;48.232;10.110;2024-02-04T13:31:31;10.30;86.10
79439;DHT22;68889;48.232;10.110;2024-02-04T13:33:57;10.20;86.00
79439;DHT22;68889;48.232;10.110;2024-02-04T13:39:44;10.40;85.80
79439;DHT22;68889;48.232;10.110;2024-02-04T13:42:20;10.70;85.10
79439;DHT22;68889;48.232;10.110;2024-02-04T13:44:50;10.90;84.50
79439;DHT22;68889;48.232;10.110;2024-02-04T13:47:17;11.10;85.10
79439;DHT22;68889;48.232;10.110;2024-02-04T13:49:46;11.20;83.90
79439;DHT22;68889;48.232;10.110;2024-02-04T13:52:22;11.30;83.70
79439;DHT22;68889;48.232;10.110;2024-02-04T13:54:49;11.20;83.70
79439;DHT22;68889;48.232;10.110;2024-02-04T13:57:33;11.10;83.60
79439;DHT22;68889;48.232;10.110;2024-02-04T14:00:00;10.90;84.10
79439;DHT22;68889;48.232;10.110;2024-02-04T14:05:32;10.70;84.70
79439;DHT22;68889;48.232;10.110;2024-02-04T14:08:03;10.60;84.90
79439;DHT22;68889;48.232;10.110;2024-02-04T14:14:01;10.70;84.70
79439;DHT22;68889;48.232;10.110;2024-02-04T14:16:31;10.70;84.90
79439;DHT22;68889;48.232;10.110;2024-02-04T14:18:57;10.70;84.60
79439;DHT22;68889;48.232;10.110;2024-02-04T14:21:26;10.70;84.80
79439;DHT22;68889;48.232;10.110;2024-02-04T14:23:52;10.70;85.30
79439;DHT22;68889;48.232;10.110;2024-02-04T14:26:30;10.70;85.00
79439;DHT22;68889;48.232;10.110;2024-02-04T14:28:55;10.70;84.90
79439;DHT22;68889;48.232;10.110;2024-02-04T14:31:29;10.70;85.20
79439;DHT22;68889;48.232;10.110;2024-02-04T14:34:03;10.60;84.90
79439;DHT22;68889;48.232;10.110;2024-02-04T14:36:43;10.60;84.80
79439;DHT22;68889;48.232;10.110;2024-02-04T14:39:15;10.70;85.00
79439;DHT22;68889;48.232;10.110;2024-02-04T14:41:41;10.60;85.00
79439;DHT22;68889;48.232;10.110;2024-02-04T14:44:07;10.60;85.50
79439;DHT22;68889;48.232;10.110;2024-02-04T14:46:46;10.60;85.10
79439;DHT22;68889;48.232;10.110;2024-02-04T14:49:15;10.60;85.10
79439;DHT22;68889;48.232;10.110;2024-02-04T14:51:47;10.60;85.10
79439;DHT22;68889;48.232;10.110;2024-02-04T14:57:30;10.60;85.00
79439;DHT22;68889;48.232;10.110;2024-02-04T15:00:01;10.50;85.40
79439;DHT22;68889;48.232;10.110;2024-02-04T15:02:27;10.50;84.90
79439;DHT22;68889;48.232;10.110;2024-02-04T15:04:56;10.40;85.10
79439;DHT22;68889;48.232;10.110;2024-02-04T15:10:30;10.30;85.60
79439;DHT22;68889;48.232;10.110;2024-02-04T15:12:59;10.30;85.60
79439;DHT22;68889;48.232;10.110;2024-02-04T15:16:01;10.20;85.80
79439;DHT22;68889;48.232;10.110;2024-02-04T15:18:41;10.20;86.40
79439;DHT22;68889;48.232;10.110;2024-02-04T15:21:12;10.20;85.80
79439;DHT22;68889;48.232;10.110;2024-02-04T15:27:12;10.10;86.00
79439;DHT22;68889;48.232;10.110;2024-02-04T15:29:38;10.10;86.20
79439;DHT22;68889;48.232;10.110;2024-02-04T15:32:15;10.00;86.20
79439;DHT22;68889;48.232;10.110;2024-02-04T15:34:41;10.00;86.30
79439;DHT22;68889;48.232;10.110;2024-02-04T15:37:16;10.00;86.50
79439;DHT22;68889;48.232;10.110;2024-02-04T15:39:43;10.00;86.80
79439;DHT22;68889;48.232;10.110;2024-02-04T15:42:11;10.00;86.60
79439;DHT22;68889;48.232;10.110;2024-02-04T15:44:48;9.90;86.70
79439;DHT22;68889;48.232;10.110;2024-02-04T15:47:18;9.90;86.80
79439;DHT22;68889;48.232;10.110;2024-02-04T15:49:49;9.80;86.80
79439;DHT22;68889;48.232;10.110;2024-02-04T15:52:16;9.80;87.10
79439;DHT22;68889;48.232;10.110;2024-02-04T15:54:42;9.70;87.50
79439;DHT22;68889;48.232;10.110;2024-02-04T15:57:11;9.60;87.70
79439;DHT22;68889;48.232;10.110;2024-02-04T16:02:09;9.60;88.30
79439;DHT22;68889;48.232;10.110;2024-02-04T16:04:35;9.60;87.90
79439;DHT22;68889;48.232;10.110;2024-02-04T16:07:05;9.60;88.10
79439;DHT22;68889;48.232;10.110;2024-02-04T16:09:31;9.60;88.40
79439;DHT22;68889;48.232;10.110;2024-02-04T16:12:05;9.50;88.30
79439;DHT22;68889;48.232;10.110;2024-02-04T16:14:35;9.50;88.10
79439;DHT22;68889;48.232;10.110;2024-02-04T16:17:23;9.60;88.00
79439;DHT22;68889;48.232;10.110;2024-02-04T16:19:50;9.50;88.60